Time;durP1;ratioP1;P1;durP2;ratioP2;P2;SDS_P1;SDS_P2;PMS_P1;PMS_P2;Temp;Humidity;BMP_temperature;BMP_pressure;BME280_temperature;BME280_humidity;BME280_pressure;Samples;Min_cycle;Max_cycle;Signal;HPM_P1;HPM_P2
2021/08/27 18:01:46;;;;;;;;;;;;;;;;;;7343413;19;140540;-76
2021/08/27 18:04:13;;;;;;;;;;;;;;;;;;7336531;19;146406;-77
2021/08/27 18:06:41;;;;;;;;;;;;;;;;;;7343436;19;141015;-84
2021/08/27 18:09:17;;;;;;;;;;;;;;;;;;7338641;19;170376;-78
2021/08/27 18:11:44;;;;;;;;;;;;;;;;;;7340634;19;165694;-84
2021/08/27 18:14:11;;;;;;;;;;;;;;;;;;7340909;19;147348;-76
2021/08/27 18:16:38;;;;;;;;;;;;;;;;;;7337704;19;171159;-76
2021/08/27 18:19:05;;;;;;;;;;;;;;;;;;7338909;19;171061;-77
2021/08/27 18:21:35;;;;;;;;;;;;;;;;;;7342364;19;140591;-78
2021/08/27 18:24:02;;;;;;;;;;;;;;;;;;7340518;19;162902;-77
2021/08/27 18:26:45;;;;;;;;;;;;;;;;;;7338939;19;171441;-78
2021/08/27 18:29:27;;;;;;;;;;;;;;;;;;7339128;19;170852;-80
2021/08/27 18:32:04;;;;;;;;;;;;;;;;;;7339851;19;163305;-81
2021/08/27 18:34:45;;;;;;;;;;;;;;;;;;7339216;19;140607;-79
2021/08/27 18:37:38;;;;;;;;;;;;;;;;;;7339162;19;159383;-80
2021/08/27 18:40:18;;;;;;;;;;;;;;;;;;7340289;19;171505;-76
2021/08/27 18:42:46;;;;;;;;;;;;;;;;;;7338981;19;162912;-74
2021/08/27 18:45:16;;;;;;;;;;;;;;;;;;7341761;19;140544;-74
2021/08/27 18:47:43;;;;;;;;;;;;;;;;;;7340369;19;168860;-74
2021/08/27 18:50:11;;;;;;;;;;;;;;;;;;7338820;19;140807;-74
2021/08/27 18:52:37;;;;;;;;;;;;;;;;;;7340507;19;164160;-73
2021/08/27 18:55:05;;;;;;;;;;;;;;;;;;7339589;19;163646;-74
2021/08/27 18:57:32;;;;;;;;;;;;;;;;;;7338417;19;168679;-74
2021/08/27 18:59:59;;;;;;;;;;;;;;;;;;7337778;19;169308;-74
2021/08/27 19:02:26;;;;;;;;;;;;;;;;;;7340504;19;140774;-74
2021/08/27 19:04:53;;;;;;;;;;;;;;;;;;7337411;19;153985;-77
2021/08/27 19:07:23;;;;;;;;;;;;;;;;;;7335956;19;140670;-76
2021/08/27 19:09:50;;;;;;;;;;;;;;;;;;7337014;19;171698;-77
2021/08/27 19:12:16;;;;;;;;;;;;;;;;;;7318391;19;163655;-76
2021/08/27 19:14:43;;;;;;;;;;;;;;;;;;7309881;19;162246;-75
2021/08/27 19:17:10;;;;;;;;;;;;;;;;;;7309182;19;169794;-75
2021/08/27 19:19:40;;;;;;;;;;;;;;;;;;7306976;19;171647;-76
2021/08/27 19:22:07;;;;;;;;;;;;;;;;;;7308474;19;164860;-76
2021/08/27 19:24:36;;;;;;;;;;;;;;;;;;7308997;19;161625;-77
2021/08/27 19:27:03;;;;;;;;;;;;;;;;;;7306886;19;170257;-76
2021/08/27 19:29:30;;;;;;;;;;;;;;;;;;7307762;19;172385;-76
2021/08/27 19:31:57;;;;;;;;;;;;;;;;;;7310338;19;164778;-76
2021/08/27 19:34:24;;;;;;;;;;;;;;;;;;7308815;19;163992;-76
2021/08/27 19:36:51;;;;;;;;;;;;;;;;;;7309092;19;171094;-77
2021/08/27 19:39:27;;;;;;;;;;;;;;;;;;7306101;19;144487;-79
2021/08/27 19:41:53;;;;;;;;;;;;;;;;;;7308969;19;156165;-78
2021/08/27 19:44:20;;;;;;;;;;;;;;;;;;7309840;19;163929;-78
2021/08/27 19:46:47;;;;;;;;;;;;;;;;;;7308619;19;170258;-83
2021/08/27 19:49:16;;;;;;;;;;;;;;;;;;7307174;19;171896;-78
2021/08/27 19:51:46;;;;;;;;;;;;;;;;;;7312737;19;140566;-77
2021/08/27 19:54:13;;;;;;;;;;;;;;;;;;7309011;19;163820;-76
2021/08/27 19:56:43;;;;;;;;;;;;;;;;;;7308370;19;140608;-75
2021/08/27 19:59:09;;;;;;;;;;;;;;;;;;7308553;19;170172;-75
2021/08/27 20:01:36;;;;;;;;;;;;;;;;;;7311207;19;163410;-75
2021/08/27 20:04:04;;;;;;;;;;;;;;;;;;7309203;19;161297;-75
2021/08/27 20:06:31;;;;;;;;;;;;;;;;;;7304497;19;141273;-76
2021/08/27 20:08:58;;;;;;;;;;;;;;;;;;7307239;19;171865;-75
2021/08/27 20:11:25;;;;;;;;;;;;;;;;;;7308795;19;164715;-74
2021/08/27 20:13:52;;;;;;;;;;;;;;;;;;7309778;19;140483;-75
2021/08/27 20:16:19;;;;;;;;;;;;;;;;;;7306569;19;171540;-75
2021/08/27 20:18:46;;;;;;;;;;;;;;;;;;7306830;19;167151;-75
2021/08/27 20:21:13;;;;;;;;;;;;;;;;;;7305440;19;163022;-75
2021/08/27 20:23:40;;;;;;;;;;;;;;;;;;7305091;19;156113;-74
2021/08/27 20:26:07;;;;;;;;;;;;;;;;;;7305943;19;152825;-74
2021/08/27 20:28:34;;;;;;;;;;;;;;;;;;7307096;19;170355;-78
2021/08/27 20:31:06;;;;;;;;;;;;;;;;;;7307170;19;164901;-77
2021/08/27 20:33:34;;;;;;;;;;;;;;;;;;7306398;19;164233;-76
2021/08/27 20:36:01;;;;;;;;;;;;;;;;;;7306008;19;169661;-78
2021/08/27 20:38:28;;;;;;;;;;;;;;;;;;7305541;19;170298;-81
2021/08/27 20:41:06;;;;;;;;;;;;;;;;;;7304930;19;150180;-79
2021/08/27 20:43:38;;;;;;;;;;;;;;;;;;7300680;19;162459;-83
2021/08/27 20:46:15;;;;;;;;;;;;;;;;;;7303971;19;171644;-79
2021/08/27 20:48:43;;;;;;;;;;;;;;;;;;7302734;19;170582;-79
2021/08/27 20:51:10;;;;;;;;;;;;;;;;;;7302687;19;163870;-80
2021/08/27 20:53:37;;;;;;;;;;;;;;;;;;7302035;19;164355;-80
2021/08/27 20:56:04;;;;;;;;;;;;;;;;;;7307162;19;140836;-82
2021/08/27 20:58:31;;;;;;;;;;;;;;;;;;7306037;19;140717;-83
2021/08/27 21:00:58;;;;;;;;;;;;;;;;;;7307270;19;163664;-83
2021/08/27 21:03:25;;;;;;;;;;;;;;;;;;7307276;19;163460;-83
2021/08/27 21:05:52;;;;;;;;;;;;;;;;;;7305585;19;168807;-79
2021/08/27 21:08:19;;;;;;;;;;;;;;;;;;7304966;19;170829;-79
2021/08/27 21:10:46;;;;;;;;;;;;;;;;;;7306703;19;163637;-82
2021/08/27 21:13:13;;;;;;;;;;;;;;;;;;7308210;19;140635;-83
2021/08/27 21:15:40;;;;;;;;;;;;;;;;;;7302497;19;171129;-81
2021/08/27 21:18:07;;;;;;;;;;;;;;;;;;7304210;19;172106;-80
2021/08/27 21:20:34;;;;;;;;;;;;;;;;;;7308409;19;140616;-81
2021/08/27 21:23:01;;;;;;;;;;;;;;;;;;7303263;19;162581;-80
2021/08/27 21:25:28;;;;;;;;;;;;;;;;;;7304228;19;171507;-80
2021/08/27 21:27:55;;;;;;;;;;;;;;;;;;7304964;19;172717;-80
2021/08/27 21:30:22;;;;;;;;;;;;;;;;;;7307312;19;141288;-80
2021/08/27 21:32:49;;;;;;;;;;;;;;;;;;7305643;19;163931;-79
2021/08/27 21:35:16;;;;;;;;;;;;;;;;;;7304527;19;170564;-79
2021/08/27 21:37:43;;;;;;;;;;;;;;;;;;7304873;19;140777;-77
2021/08/27 21:40:10;;;;;;;;;;;;;;;;;;7306204;19;163127;-77
2021/08/27 21:42:37;;;;;;;;;;;;;;;;;;7305892;19;162479;-78
2021/08/27 21:45:06;;;;;;;;;;;;;;;;;;7304388;19;169929;-81
